sensor_id;sensor_type;location;lat;lon;timestamp;temperature;humidity
16485;DHT22;8353;47.856;12.344;2023-07-13T00:01:44;22.40;99.90
16485;DHT22;8353;47.856;12.344;2023-07-13T00:04:18;22.30;99.90
16485;DHT22;8353;47.856;12.344;2023-07-13T00:06:48;22.00;99.90
16485;DHT22;8353;47.856;12.344;2023-07-13T00:09:19;21.90;99.90
16485;DHT22;8353;47.856;12.344;2023-07-13T00:11:52;22.00;99.90
16485;DHT22;8353;47.856;12.344;2023-07-13T00:14:23;22.00;99.90
16485;DHT22;8353;47.856;12.344;2023-07-13T00:16:54;21.90;99.90
16485;DHT22;8353;47.856;12.344;2023-07-13T00:19:26;21.60;99.90
16485;DHT22;8353;47.856;12.344;2023-07-13T00:21:56;21.30;99.90
16485;DHT22;8353;47.856;12.344;2023-07-13T00:24:26;21.30;99.90
16485;DHT22;8353;47.856;12.344;2023-07-13T00:26:57;21.40;99.90
16485;DHT22;8353;47.856;12.344;2023-07-13T00:29:27;21.40;99.90
16485;DHT22;8353;47.856;12.344;2023-07-13T00:31:59;21.40;99.90
16485;DHT22;8353;47.856;12.344;2023-07-13T00:34:32;21.50;99.90
16485;DHT22;8353;47.856;12.344;2023-07-13T00:37:02;21.40;99.90
16485;DHT22;8353;47.856;12.344;2023-07-13T00:39:33;21.50;99.90
16485;DHT22;8353;47.856;12.344;2023-07-13T00:42:04;21.50;99.90
16485;DHT22;8353;47.856;12.344;2023-07-13T00:44:34;21.50;99.90
16485;DHT22;8353;47.856;12.344;2023-07-13T00:47:05;21.50;99.90
16485;DHT22;8353;47.856;12.344;2023-07-13T00:49:37;21.60;99.90
16485;DHT22;8353;47.856;12.344;2023-07-13T00:52:09;21.60;99.90
16485;DHT22;8353;47.856;12.344;2023-07-13T00:54:43;21.60;99.90
16485;DHT22;8353;47.856;12.344;2023-07-13T00:57:18;21.40;99.90
16485;DHT22;8353;47.856;12.344;2023-07-13T00:59:53;21.40;99.90
16485;DHT22;8353;47.856;12.344;2023-07-13T01:02:25;21.40;99.90
16485;DHT22;8353;47.856;12.344;2023-07-13T01:04:58;21.40;99.90
16485;DHT22;8353;47.856;12.344;2023-07-13T01:07:28;21.50;99.90
16485;DHT22;8353;47.856;12.344;2023-07-13T01:09:59;21.60;99.90
16485;DHT22;8353;47.856;12.344;2023-07-13T01:12:34;21.80;99.90
16485;DHT22;8353;47.856;12.344;2023-07-13T01:15:32;21.90;99.90
16485;DHT22;8353;47.856;12.344;2023-07-13T01:17:57;21.90;99.90
16485;DHT22;8353;47.856;12.344;2023-07-13T01:20:29;21.80;99.90
16485;DHT22;8353;47.856;12.344;2023-07-13T01:23:00;21.80;99.90
16485;DHT22;8353;47.856;12.344;2023-07-13T01:25:31;21.70;99.90
16485;DHT22;8353;47.856;12.344;2023-07-13T01:28:01;21.50;99.90
16485;DHT22;8353;47.856;12.344;2023-07-13T01:30:32;21.30;99.90
16485;DHT22;8353;47.856;12.344;2023-07-13T01:33:03;21.40;99.90
16485;DHT22;8353;47.856;12.344;2023-07-13T01:35:33;21.50;99.90
16485;DHT22;8353;47.856;12.344;2023-07-13T01:38:05;21.60;99.90
16485;DHT22;8353;47.856;12.344;2023-07-13T01:40:37;21.60;99.90
16485;DHT22;8353;47.856;12.344;2023-07-13T01:43:08;21.70;99.90
16485;DHT22;8353;47.856;12.344;2023-07-13T01:45:39;21.70;99.90
16485;DHT22;8353;47.856;12.344;2023-07-13T01:48:10;21.70;99.90
16485;DHT22;8353;47.856;12.344;2023-07-13T01:50:55;21.60;99.90
16485;DHT22;8353;47.856;12.344;2023-07-13T01:53:29;21.70;99.90
16485;DHT22;8353;47.856;12.344;2023-07-13T01:55:59;21.80;99.90
16485;DHT22;8353;47.856;12.344;2023-07-13T01:58:29;21.80;99.90
16485;DHT22;8353;47.856;12.344;2023-07-13T02:00:59;21.90;99.90
16485;DHT22;8353;47.856;12.344;2023-07-13T02:03:29;21.90;99.90
16485;DHT22;8353;47.856;12.344;2023-07-13T02:06:00;21.80;99.90
16485;DHT22;8353;47.856;12.344;2023-07-13T02:08:32;21.90;99.90
16485;DHT22;8353;47.856;12.344;2023-07-13T02:11:03;21.90;99.90
16485;DHT22;8353;47.856;12.344;2023-07-13T02:13:33;22.10;99.90
16485;DHT22;8353;47.856;12.344;2023-07-13T02:16:04;21.80;99.90
16485;DHT22;8353;47.856;12.344;2023-07-13T02:18:35;21.30;99.90
16485;DHT22;8353;47.856;12.344;2023-07-13T02:21:06;21.30;99.90
16485;DHT22;8353;47.856;12.344;2023-07-13T02:23:38;21.20;99.90
16485;DHT22;8353;47.856;12.344;2023-07-13T02:26:09;21.10;99.90
16485;DHT22;8353;47.856;12.344;2023-07-13T02:28:40;21.00;99.90
16485;DHT22;8353;47.856;12.344;2023-07-13T02:31:13;21.10;99.90
16485;DHT22;8353;47.856;12.344;2023-07-13T02:33:43;21.20;99.90
16485;DHT22;8353;47.856;12.344;2023-07-13T02:36:13;21.10;99.90
16485;DHT22;8353;47.856;12.344;2023-07-13T02:38:49;21.20;99.90
16485;DHT22;8353;47.856;12.344;2023-07-13T02:41:19;21.10;99.90
16485;DHT22;8353;47.856;12.344;2023-07-13T02:43:49;21.10;99.90
16485;DHT22;8353;47.856;12.344;2023-07-13T02:46:20;21.20;99.90
16485;DHT22;8353;47.856;12.344;2023-07-13T02:48:50;21.10;99.90
16485;DHT22;8353;47.856;12.344;2023-07-13T02:51:22;20.90;99.90
16485;DHT22;8353;47.856;12.344;2023-07-13T02:53:54;20.90;99.90
16485;DHT22;8353;47.856;12.344;2023-07-13T02:56:26;20.90;99.90
16485;DHT22;8353;47.856;12.344;2023-07-13T02:58:57;20.90;99.90
16485;DHT22;8353;47.856;12.344;2023-07-13T03:01:28;20.90;99.90
16485;DHT22;8353;47.856;12.344;2023-07-13T03:03:58;21.00;99.90
16485;DHT22;8353;47.856;12.344;2023-07-13T03:06:30;21.00;99.90
16485;DHT22;8353;47.856;12.344;2023-07-13T03:09:02;21.00;99.90
16485;DHT22;8353;47.856;12.344;2023-07-13T03:11:33;21.00;99.90
16485;DHT22;8353;47.856;12.344;2023-07-13T03:14:04;21.10;99.90
16485;DHT22;8353;47.856;12.344;2023-07-13T03:16:34;21.10;99.90
16485;DHT22;8353;47.856;12.344;2023-07-13T03:19:04;21.00;99.90
16485;DHT22;8353;47.856;12.344;2023-07-13T03:21:34;20.90;99.90
16485;DHT22;8353;47.856;12.344;2023-07-13T03:24:07;21.00;99.90
16485;DHT22;8353;47.856;12.344;2023-07-13T03:26:38;21.00;99.90
16485;DHT22;8353;47.856;12.344;2023-07-13T03:29:08;21.00;99.90
16485;DHT22;8353;47.856;12.344;2023-07-13T03:31:40;21.30;99.90
16485;DHT22;8353;47.856;12.344;2023-07-13T03:34:10;21.20;99.90
16485;DHT22;8353;47.856;12.344;2023-07-13T03:36:41;21.00;99.90
16485;DHT22;8353;47.856;12.344;2023-07-13T03:39:13;21.00;99.90
16485;DHT22;8353;47.856;12.344;2023-07-13T03:41:43;21.00;99.90
16485;DHT22;8353;47.856;12.344;2023-07-13T03:44:13;21.00;99.90
16485;DHT22;8353;47.856;12.344;2023-07-13T03:46:43;21.00;99.90
16485;DHT22;8353;47.856;12.344;2023-07-13T03:49:13;20.90;99.90
16485;DHT22;8353;47.856;12.344;2023-07-13T03:51:44;21.10;99.90
16485;DHT22;8353;47.856;12.344;2023-07-13T03:54:16;21.10;99.90
16485;DHT22;8353;47.856;12.344;2023-07-13T03:56:46;21.10;99.90
16485;DHT22;8353;47.856;12.344;2023-07-13T03:59:17;21.20;99.90
16485;DHT22;8353;47.856;12.344;2023-07-13T04:01:47;21.10;99.90
16485;DHT22;8353;47.856;12.344;2023-07-13T04:04:17;21.10;99.90
16485;DHT22;8353;47.856;12.344;2023-07-13T04:06:48;21.00;99.90
16485;DHT22;8353;47.856;12.344;2023-07-13T04:09:19;20.90;99.90
16485;DHT22;8353;47.856;12.344;2023-07-13T04:11:50;21.00;99.90
16485;DHT22;8353;47.856;12.344;2023-07-13T04:14:20;20.90;99.90
16485;DHT22;8353;47.856;12.344;2023-07-13T04:16:50;20.90;99.90
16485;DHT22;8353;47.856;12.344;2023-07-13T04:19:23;20.90;99.90
16485;DHT22;8353;47.856;12.344;2023-07-13T04:21:54;20.90;99.90
16485;DHT22;8353;47.856;12.344;2023-07-13T04:24:25;20.90;99.90
16485;DHT22;8353;47.856;12.344;2023-07-13T04:26:55;20.90;99.90
16485;DHT22;8353;47.856;12.344;2023-07-13T04:29:28;20.80;99.90
16485;DHT22;8353;47.856;12.344;2023-07-13T04:31:59;20.80;99.90
16485;DHT22;8353;47.856;12.344;2023-07-13T04:34:29;20.80;99.90
16485;DHT22;8353;47.856;12.344;2023-07-13T04:37:00;20.80;99.90
16485;DHT22;8353;47.856;12.344;2023-07-13T04:39:32;20.80;99.90
16485;DHT22;8353;47.856;12.344;2023-07-13T04:42:03;20.60;99.90
16485;DHT22;8353;47.856;12.344;2023-07-13T04:44:33;20.50;99.90
16485;DHT22;8353;47.856;12.344;2023-07-13T04:47:04;20.40;99.90
16485;DHT22;8353;47.856;12.344;2023-07-13T04:49:34;20.40;99.90
16485;DHT22;8353;47.856;12.344;2023-07-13T04:52:05;20.50;99.90
16485;DHT22;8353;47.856;12.344;2023-07-13T04:54:37;20.70;99.90
16485;DHT22;8353;47.856;12.344;2023-07-13T04:57:08;20.80;99.90
16485;DHT22;8353;47.856;12.344;2023-07-13T04:59:38;20.80;99.90
16485;DHT22;8353;47.856;12.344;2023-07-13T05:02:09;20.70;99.90
16485;DHT22;8353;47.856;12.344;2023-07-13T05:04:40;20.60;99.90
16485;DHT22;8353;47.856;12.344;2023-07-13T05:07:10;20.70;99.90
16485;DHT22;8353;47.856;12.344;2023-07-13T05:09:42;20.80;99.90
16485;DHT22;8353;47.856;12.344;2023-07-13T05:12:12;20.70;99.90
16485;DHT22;8353;47.856;12.344;2023-07-13T05:14:43;20.70;99.90
16485;DHT22;8353;47.856;12.344;2023-07-13T05:17:13;20.60;99.90
16485;DHT22;8353;47.856;12.344;2023-07-13T05:19:44;20.60;99.90
16485;DHT22;8353;47.856;12.344;2023-07-13T05:22:15;20.60;99.90
16485;DHT22;8353;47.856;12.344;2023-07-13T05:24:46;20.60;99.90
16485;DHT22;8353;47.856;12.344;2023-07-13T05:27:16;20.70;99.90
16485;DHT22;8353;47.856;12.344;2023-07-13T05:30:06;20.80;99.90
16485;DHT22;8353;47.856;12.344;2023-07-13T05:32:40;20.80;99.90
16485;DHT22;8353;47.856;12.344;2023-07-13T05:35:10;20.80;99.90
16485;DHT22;8353;47.856;12.344;2023-07-13T05:37:41;20.70;99.90
16485;DHT22;8353;47.856;12.344;2023-07-13T05:40:12;20.70;99.90
16485;DHT22;8353;47.856;12.344;2023-07-13T05:42:45;20.70;99.90
16485;DHT22;8353;47.856;12.344;2023-07-13T05:45:16;20.60;99.90
16485;DHT22;8353;47.856;12.344;2023-07-13T05:47:46;20.70;99.90
16485;DHT22;8353;47.856;12.344;2023-07-13T05:50:17;20.70;99.90
16485;DHT22;8353;47.856;12.344;2023-07-13T05:52:47;20.90;99.90
16485;DHT22;8353;47.856;12.344;2023-07-13T05:55:19;20.90;99.90
16485;DHT22;8353;47.856;12.344;2023-07-13T05:57:50;20.90;99.90
16485;DHT22;8353;47.856;12.344;2023-07-13T06:00:22;20.80;99.90
16485;DHT22;8353;47.856;12.344;2023-07-13T06:02:53;20.80;99.90
16485;DHT22;8353;47.856;12.344;2023-07-13T06:05:24;20.90;99.90
16485;DHT22;8353;47.856;12.344;2023-07-13T06:07:54;20.90;99.90
16485;DHT22;8353;47.856;12.344;2023-07-13T06:10:25;21.10;99.90
16485;DHT22;8353;47.856;12.344;2023-07-13T06:12:55;21.10;99.90
16485;DHT22;8353;47.856;12.344;2023-07-13T06:15:26;21.10;99.90
16485;DHT22;8353;47.856;12.344;2023-07-13T06:17:59;20.90;99.90
16485;DHT22;8353;47.856;12.344;2023-07-13T06:20:33;20.90;99.90
16485;DHT22;8353;47.856;12.344;2023-07-13T06:23:05;20.90;99.90
16485;DHT22;8353;47.856;12.344;2023-07-13T06:25:36;20.90;99.90
16485;DHT22;8353;47.856;12.344;2023-07-13T06:28:07;21.00;99.90
16485;DHT22;8353;47.856;12.344;2023-07-13T06:30:38;21.00;99.90
16485;DHT22;8353;47.856;12.344;2023-07-13T06:33:10;21.00;99.90
16485;DHT22;8353;47.856;12.344;2023-07-13T06:35:43;21.10;99.90
16485;DHT22;8353;47.856;12.344;2023-07-13T06:38:15;21.10;99.90
16485;DHT22;8353;47.856;12.344;2023-07-13T06:40:48;21.00;99.90
16485;DHT22;8353;47.856;12.344;2023-07-13T06:43:18;21.10;99.90
16485;DHT22;8353;47.856;12.344;2023-07-13T06:45:49;21.20;99.90
16485;DHT22;8353;47.856;12.344;2023-07-13T06:48:20;21.30;99.90
16485;DHT22;8353;47.856;12.344;2023-07-13T06:50:50;21.50;99.90
16485;DHT22;8353;47.856;12.344;2023-07-13T06:53:22;21.50;99.90
16485;DHT22;8353;47.856;12.344;2023-07-13T06:55:54;21.50;99.90
16485;DHT22;8353;47.856;12.344;2023-07-13T06:58:24;21.40;99.90
16485;DHT22;8353;47.856;12.344;2023-07-13T07:00:57;21.30;99.90
16485;DHT22;8353;47.856;12.344;2023-07-13T07:03:28;21.30;99.90
16485;DHT22;8353;47.856;12.344;2023-07-13T07:06:00;21.20;99.90
16485;DHT22;8353;47.856;12.344;2023-07-13T07:08:31;21.20;99.90
16485;DHT22;8353;47.856;12.344;2023-07-13T07:11:02;21.20;99.90
16485;DHT22;8353;47.856;12.344;2023-07-13T07:13:35;21.10;99.90
16485;DHT22;8353;47.856;12.344;2023-07-13T07:16:05;21.10;99.90
16485;DHT22;8353;47.856;12.344;2023-07-13T07:18:36;21.10;99.90
16485;DHT22;8353;47.856;12.344;2023-07-13T07:21:09;21.10;99.90
16485;DHT22;8353;47.856;12.344;2023-07-13T07:23:43;21.00;99.90
16485;DHT22;8353;47.856;12.344;2023-07-13T07:26:15;21.10;99.90
16485;DHT22;8353;47.856;12.344;2023-07-13T07:28:46;21.20;99.90
16485;DHT22;8353;47.856;12.344;2023-07-13T07:31:16;21.30;99.90
16485;DHT22;8353;47.856;12.344;2023-07-13T07:33:47;21.40;99.90
16485;DHT22;8353;47.856;12.344;2023-07-13T07:36:18;21.40;99.90
16485;DHT22;8353;47.856;12.344;2023-07-13T07:38:49;21.40;99.90
16485;DHT22;8353;47.856;12.344;2023-07-13T07:41:21;21.50;99.90
16485;DHT22;8353;47.856;12.344;2023-07-13T07:43:52;21.60;99.90
16485;DHT22;8353;47.856;12.344;2023-07-13T07:46:22;21.70;99.90
16485;DHT22;8353;47.856;12.344;2023-07-13T07:48:53;21.70;99.90
16485;DHT22;8353;47.856;12.344;2023-07-13T07:51:23;21.80;99.90
16485;DHT22;8353;47.856;12.344;2023-07-13T07:53:54;21.90;99.90
16485;DHT22;8353;47.856;12.344;2023-07-13T07:56:25;21.90;99.90
16485;DHT22;8353;47.856;12.344;2023-07-13T07:58:58;21.90;99.90
16485;DHT22;8353;47.856;12.344;2023-07-13T08:01:28;21.90;99.90
16485;DHT22;8353;47.856;12.344;2023-07-13T08:03:58;21.90;99.90
16485;DHT22;8353;47.856;12.344;2023-07-13T08:06:28;22.00;99.90
16485;DHT22;8353;47.856;12.344;2023-07-13T08:08:59;22.00;99.90
16485;DHT22;8353;47.856;12.344;2023-07-13T08:11:31;22.10;99.90
16485;DHT22;8353;47.856;12.344;2023-07-13T08:14:04;22.20;99.90
16485;DHT22;8353;47.856;12.344;2023-07-13T08:16:34;22.30;99.90
16485;DHT22;8353;47.856;12.344;2023-07-13T08:19:05;22.50;99.90
16485;DHT22;8353;47.856;12.344;2023-07-13T08:21:35;22.40;99.90
16485;DHT22;8353;47.856;12.344;2023-07-13T08:24:07;22.50;99.90
16485;DHT22;8353;47.856;12.344;2023-07-13T08:26:39;22.60;99.90
16485;DHT22;8353;47.856;12.344;2023-07-13T08:29:09;22.50;99.90
16485;DHT22;8353;47.856;12.344;2023-07-13T08:31:39;22.60;99.90
16485;DHT22;8353;47.856;12.344;2023-07-13T08:34:10;22.80;99.90
16485;DHT22;8353;47.856;12.344;2023-07-13T08:36:40;23.00;99.90
16485;DHT22;8353;47.856;12.344;2023-07-13T08:39:11;23.10;99.90
16485;DHT22;8353;47.856;12.344;2023-07-13T08:41:44;23.20;99.90
16485;DHT22;8353;47.856;12.344;2023-07-13T08:44:21;23.20;99.90
16485;DHT22;8353;47.856;12.344;2023-07-13T08:46:58;23.30;99.90
16485;DHT22;8353;47.856;12.344;2023-07-13T08:49:29;23.30;99.90
16485;DHT22;8353;47.856;12.344;2023-07-13T08:52:03;23.30;99.90
16485;DHT22;8353;47.856;12.344;2023-07-13T08:54:41;23.40;99.90
16485;DHT22;8353;47.856;12.344;2023-07-13T08:57:15;23.50;99.90
16485;DHT22;8353;47.856;12.344;2023-07-13T08:59:48;23.60;99.90
16485;DHT22;8353;47.856;12.344;2023-07-13T09:02:25;23.70;99.90
16485;DHT22;8353;47.856;12.344;2023-07-13T09:04:59;23.70;99.90
16485;DHT22;8353;47.856;12.344;2023-07-13T09:07:42;23.80;99.90
16485;DHT22;8353;47.856;12.344;2023-07-13T09:10:19;23.70;99.90
16485;DHT22;8353;47.856;12.344;2023-07-13T09:13:04;23.70;99.90
16485;DHT22;8353;47.856;12.344;2023-07-13T09:15:40;23.80;99.90
16485;DHT22;8353;47.856;12.344;2023-07-13T09:18:21;23.90;99.90
16485;DHT22;8353;47.856;12.344;2023-07-13T09:20:57;24.00;99.90
16485;DHT22;8353;47.856;12.344;2023-07-13T09:23:30;24.10;99.90
16485;DHT22;8353;47.856;12.344;2023-07-13T09:26:05;24.30;99.90
16485;DHT22;8353;47.856;12.344;2023-07-13T09:28:39;24.40;99.90
16485;DHT22;8353;47.856;12.344;2023-07-13T09:31:14;24.40;99.90
16485;DHT22;8353;47.856;12.344;2023-07-13T09:33:45;24.40;99.90
16485;DHT22;8353;47.856;12.344;2023-07-13T09:36:22;24.50;99.90
16485;DHT22;8353;47.856;12.344;2023-07-13T09:38:59;24.60;99.90
16485;DHT22;8353;47.856;12.344;2023-07-13T09:41:39;24.50;99.90
16485;DHT22;8353;47.856;12.344;2023-07-13T09:44:17;24.50;99.90
16485;DHT22;8353;47.856;12.344;2023-07-13T09:46:52;24.60;99.90
16485;DHT22;8353;47.856;12.344;2023-07-13T09:49:24;24.50;99.90
16485;DHT22;8353;47.856;12.344;2023-07-13T09:51:58;24.40;99.90
16485;DHT22;8353;47.856;12.344;2023-07-13T09:54:33;24.40;99.90
16485;DHT22;8353;47.856;12.344;2023-07-13T09:57:12;24.40;99.90
16485;DHT22;8353;47.856;12.344;2023-07-13T09:59:46;24.20;99.90
16485;DHT22;8353;47.856;12.344;2023-07-13T10:02:25;24.10;99.90
16485;DHT22;8353;47.856;12.344;2023-07-13T10:04:56;23.80;99.90
16485;DHT22;8353;47.856;12.344;2023-07-13T10:07:27;23.70;99.90
16485;DHT22;8353;47.856;12.344;2023-07-13T10:10:00;23.60;99.90
16485;DHT22;8353;47.856;12.344;2023-07-13T10:12:36;23.50;99.90
16485;DHT22;8353;47.856;12.344;2023-07-13T10:15:15;23.50;99.90
16485;DHT22;8353;47.856;12.344;2023-07-13T10:17:46;23.40;99.90
16485;DHT22;8353;47.856;12.344;2023-07-13T10:20:20;23.40;99.90
16485;DHT22;8353;47.856;12.344;2023-07-13T10:22:57;23.40;99.90
16485;DHT22;8353;47.856;12.344;2023-07-13T10:25:31;23.40;99.90
16485;DHT22;8353;47.856;12.344;2023-07-13T10:28:10;23.40;99.90
16485;DHT22;8353;47.856;12.344;2023-07-13T10:30:45;23.50;99.90
16485;DHT22;8353;47.856;12.344;2023-07-13T10:33:16;23.30;99.90
16485;DHT22;8353;47.856;12.344;2023-07-13T10:35:48;23.40;99.90
16485;DHT22;8353;47.856;12.344;2023-07-13T10:38:22;23.40;99.90
16485;DHT22;8353;47.856;12.344;2023-07-13T10:40:58;23.60;99.90
16485;DHT22;8353;47.856;12.344;2023-07-13T10:43:35;23.40;99.90
16485;DHT22;8353;47.856;12.344;2023-07-13T10:46:14;23.30;99.90
16485;DHT22;8353;47.856;12.344;2023-07-13T10:48:48;23.20;99.90
16485;DHT22;8353;47.856;12.344;2023-07-13T10:51:20;23.40;99.90
16485;DHT22;8353;47.856;12.344;2023-07-13T10:54:16;23.50;99.90
16485;DHT22;8353;47.856;12.344;2023-07-13T10:56:50;23.50;99.90
16485;DHT22;8353;47.856;12.344;2023-07-13T10:59:25;23.50;99.90
16485;DHT22;8353;47.856;12.344;2023-07-13T11:02:10;23.40;99.90
16485;DHT22;8353;47.856;12.344;2023-07-13T11:04:43;23.20;99.90
16485;DHT22;8353;47.856;12.344;2023-07-13T11:07:20;23.10;99.90
16485;DHT22;8353;47.856;12.344;2023-07-13T11:09:54;23.10;99.90
16485;DHT22;8353;47.856;12.344;2023-07-13T11:12:29;23.10;99.90
16485;DHT22;8353;47.856;12.344;2023-07-13T11:15:32;22.90;99.90
16485;DHT22;8353;47.856;12.344;2023-07-13T11:18:19;22.90;99.90
16485;DHT22;8353;47.856;12.344;2023-07-13T11:20:50;23.00;99.90
16485;DHT22;8353;47.856;12.344;2023-07-13T11:23:30;22.90;99.90
16485;DHT22;8353;47.856;12.344;2023-07-13T11:26:03;22.70;99.90
16485;DHT22;8353;47.856;12.344;2023-07-13T11:28:34;22.80;99.90
16485;DHT22;8353;47.856;12.344;2023-07-13T11:31:14;22.70;99.90
16485;DHT22;8353;47.856;12.344;2023-07-13T11:33:56;22.60;99.90
16485;DHT22;8353;47.856;12.344;2023-07-13T11:36:35;22.40;99.90
16485;DHT22;8353;47.856;12.344;2023-07-13T11:39:18;22.40;99.90
16485;DHT22;8353;47.856;12.344;2023-07-13T11:41:52;22.30;99.90
16485;DHT22;8353;47.856;12.344;2023-07-13T11:44:28;22.40;99.90
16485;DHT22;8353;47.856;12.344;2023-07-13T11:47:00;22.20;99.90
16485;DHT22;8353;47.856;12.344;2023-07-13T11:49:43;22.00;99.90
16485;DHT22;8353;47.856;12.344;2023-07-13T11:52:18;22.20;99.90
16485;DHT22;8353;47.856;12.344;2023-07-13T11:54:52;22.00;99.90
16485;DHT22;8353;47.856;12.344;2023-07-13T11:57:27;21.90;99.90
16485;DHT22;8353;47.856;12.344;2023-07-13T12:00:02;21.90;99.90
16485;DHT22;8353;47.856;12.344;2023-07-13T12:02:38;21.80;99.90
16485;DHT22;8353;47.856;12.344;2023-07-13T12:05:14;21.80;99.90
16485;DHT22;8353;47.856;12.344;2023-07-13T12:07:46;22.00;99.90
16485;DHT22;8353;47.856;12.344;2023-07-13T12:10:20;22.20;99.90
16485;DHT22;8353;47.856;12.344;2023-07-13T12:12:53;21.90;99.90
16485;DHT22;8353;47.856;12.344;2023-07-13T12:15:28;21.70;99.90
16485;DHT22;8353;47.856;12.344;2023-07-13T12:18:01;21.60;99.90
16485;DHT22;8353;47.856;12.344;2023-07-13T12:20:38;21.80;99.90
16485;DHT22;8353;47.856;12.344;2023-07-13T12:23:19;21.90;99.90
16485;DHT22;8353;47.856;12.344;2023-07-13T12:25:53;22.00;99.90
16485;DHT22;8353;47.856;12.344;2023-07-13T12:28:36;22.20;99.90
16485;DHT22;8353;47.856;12.344;2023-07-13T12:31:25;22.40;99.90
16485;DHT22;8353;47.856;12.344;2023-07-13T12:33:58;22.50;99.90
16485;DHT22;8353;47.856;12.344;2023-07-13T12:36:34;22.50;99.90
16485;DHT22;8353;47.856;12.344;2023-07-13T12:39:13;22.60;99.90
16485;DHT22;8353;47.856;12.344;2023-07-13T12:41:44;22.70;99.90
16485;DHT22;8353;47.856;12.344;2023-07-13T12:44:18;22.80;99.90
16485;DHT22;8353;47.856;12.344;2023-07-13T12:46:57;23.10;99.90
16485;DHT22;8353;47.856;12.344;2023-07-13T12:49:32;23.30;99.90
16485;DHT22;8353;47.856;12.344;2023-07-13T12:52:14;23.60;99.90
16485;DHT22;8353;47.856;12.344;2023-07-13T12:54:53;23.70;99.90
16485;DHT22;8353;47.856;12.344;2023-07-13T12:57:26;23.70;99.90
16485;DHT22;8353;47.856;12.344;2023-07-13T12:59:56;23.70;99.90
16485;DHT22;8353;47.856;12.344;2023-07-13T13:02:30;23.80;99.90
16485;DHT22;8353;47.856;12.344;2023-07-13T13:05:01;24.10;99.90
16485;DHT22;8353;47.856;12.344;2023-07-13T13:07:34;24.30;99.90
16485;DHT22;8353;47.856;12.344;2023-07-13T13:10:11;24.10;99.90
16485;DHT22;8353;47.856;12.344;2023-07-13T13:12:43;24.40;99.90
16485;DHT22;8353;47.856;12.344;2023-07-13T13:15:13;24.60;99.90
16485;DHT22;8353;47.856;12.344;2023-07-13T13:17:45;24.90;99.90
16485;DHT22;8353;47.856;12.344;2023-07-13T13:20:18;25.10;99.90
16485;DHT22;8353;47.856;12.344;2023-07-13T13:22:51;25.30;99.90
16485;DHT22;8353;47.856;12.344;2023-07-13T13:25:22;25.30;99.90
16485;DHT22;8353;47.856;12.344;2023-07-13T13:27:52;25.30;99.90
16485;DHT22;8353;47.856;12.344;2023-07-13T13:30:23;25.40;99.90
16485;DHT22;8353;47.856;12.344;2023-07-13T13:32:53;25.70;99.90
16485;DHT22;8353;47.856;12.344;2023-07-13T13:35:24;26.00;99.90
16485;DHT22;8353;47.856;12.344;2023-07-13T13:37:57;26.10;99.90
16485;DHT22;8353;47.856;12.344;2023-07-13T13:40:27;26.20;99.90
16485;DHT22;8353;47.856;12.344;2023-07-13T13:43:18;26.30;99.90
16485;DHT22;8353;47.856;12.344;2023-07-13T13:45:49;26.30;99.90
16485;DHT22;8353;47.856;12.344;2023-07-13T13:48:23;26.50;99.90
16485;DHT22;8353;47.856;12.344;2023-07-13T13:51:01;26.50;99.90
16485;DHT22;8353;47.856;12.344;2023-07-13T13:53:36;26.50;99.90
16485;DHT22;8353;47.856;12.344;2023-07-13T13:56:08;26.70;99.90
16485;DHT22;8353;47.856;12.344;2023-07-13T13:58:38;26.70;99.90
16485;DHT22;8353;47.856;12.344;2023-07-13T14:01:13;26.80;99.90
16485;DHT22;8353;47.856;12.344;2023-07-13T14:03:45;26.90;99.90
16485;DHT22;8353;47.856;12.344;2023-07-13T14:06:17;26.80;99.90
16485;DHT22;8353;47.856;12.344;2023-07-13T14:08:51;26.70;99.90
16485;DHT22;8353;47.856;12.344;2023-07-13T14:11:22;26.70;99.90
16485;DHT22;8353;47.856;12.344;2023-07-13T14:13:56;26.80;99.90
16485;DHT22;8353;47.856;12.344;2023-07-13T14:16:29;26.70;99.90
16485;DHT22;8353;47.856;12.344;2023-07-13T14:19:01;27.10;99.90
16485;DHT22;8353;47.856;12.344;2023-07-13T14:21:31;27.50;99.90
16485;DHT22;8353;47.856;12.344;2023-07-13T14:24:03;27.60;99.90
16485;DHT22;8353;47.856;12.344;2023-07-13T14:26:37;27.70;99.90
16485;DHT22;8353;47.856;12.344;2023-07-13T14:29:13;27.90;99.90
16485;DHT22;8353;47.856;12.344;2023-07-13T14:31:46;28.20;99.90
16485;DHT22;8353;47.856;12.344;2023-07-13T14:34:17;28.10;99.90
16485;DHT22;8353;47.856;12.344;2023-07-13T14:36:48;28.30;99.90
16485;DHT22;8353;47.856;12.344;2023-07-13T14:39:22;28.20;99.90
16485;DHT22;8353;47.856;12.344;2023-07-13T14:41:54;28.30;99.90
16485;DHT22;8353;47.856;12.344;2023-07-13T14:44:26;28.60;99.90
16485;DHT22;8353;47.856;12.344;2023-07-13T14:47:00;28.60;99.90
16485;DHT22;8353;47.856;12.344;2023-07-13T14:49:35;28.50;99.90
16485;DHT22;8353;47.856;12.344;2023-07-13T14:52:11;28.40;99.90
16485;DHT22;8353;47.856;12.344;2023-07-13T14:54:43;28.50;99.90
16485;DHT22;8353;47.856;12.344;2023-07-13T14:57:17;28.50;99.90
16485;DHT22;8353;47.856;12.344;2023-07-13T14:59:48;28.00;99.90
16485;DHT22;8353;47.856;12.344;2023-07-13T15:02:25;27.90;99.90
16485;DHT22;8353;47.856;12.344;2023-07-13T15:04:58;28.00;99.90
16485;DHT22;8353;47.856;12.344;2023-07-13T15:07:29;27.70;99.90
16485;DHT22;8353;47.856;12.344;2023-07-13T15:10:13;27.90;99.90
16485;DHT22;8353;47.856;12.344;2023-07-13T15:12:44;27.80;99.90
16485;DHT22;8353;47.856;12.344;2023-07-13T15:15:15;28.10;99.90
16485;DHT22;8353;47.856;12.344;2023-07-13T15:17:47;28.00;99.90
16485;DHT22;8353;47.856;12.344;2023-07-13T15:20:21;28.00;99.90
16485;DHT22;8353;47.856;12.344;2023-07-13T15:22:56;28.30;99.90
16485;DHT22;8353;47.856;12.344;2023-07-13T15:25:30;28.30;99.90
16485;DHT22;8353;47.856;12.344;2023-07-13T15:28:03;28.40;99.90
16485;DHT22;8353;47.856;12.344;2023-07-13T15:30:36;28.20;99.90
16485;DHT22;8353;47.856;12.344;2023-07-13T15:33:12;28.20;99.90
16485;DHT22;8353;47.856;12.344;2023-07-13T15:35:43;28.00;99.90
16485;DHT22;8353;47.856;12.344;2023-07-13T15:38:17;27.80;99.90
16485;DHT22;8353;47.856;12.344;2023-07-13T15:40:50;28.10;99.90
16485;DHT22;8353;47.856;12.344;2023-07-13T15:43:22;28.30;99.90
16485;DHT22;8353;47.856;12.344;2023-07-13T15:45:53;28.20;99.90
16485;DHT22;8353;47.856;12.344;2023-07-13T15:48:25;28.30;99.90
16485;DHT22;8353;47.856;12.344;2023-07-13T15:51:02;28.30;99.90
16485;DHT22;8353;47.856;12.344;2023-07-13T15:53:34;28.20;99.90
16485;DHT22;8353;47.856;12.344;2023-07-13T15:56:18;27.90;99.90
16485;DHT22;8353;47.856;12.344;2023-07-13T15:58:49;27.80;99.90
16485;DHT22;8353;47.856;12.344;2023-07-13T16:01:20;27.60;99.90
16485;DHT22;8353;47.856;12.344;2023-07-13T16:03:51;27.40;99.90
16485;DHT22;8353;47.856;12.344;2023-07-13T16:06:26;27.40;99.90